[source: ADDS]
METAR
EDVE 171620Z VRB03KT CAVOK 15/12 Q1011

TAF EDVE 171400Z 1715/1721 22008KT 9999 BKN030 TEMPO 1717/1720 16005KT EDDV 171620Z 26005KT 210V300 9999 FEW020 16/13 Q1011 NOSIG

TAF EDDV 171100Z 1712/1812 23010KT 9999 BKN025 BECMG 1715/1718 17007KT TEMPO 1720/1808 RA BKN012 ETHS 171620Z 19005KT 9999 BKN020 SCT050 14/13 Q1011 WHT BLU TEMPO WHT

TAF ETHS 171619Z 1717/1802 20007KT 9999 NSW SCT015 BKN050 TEMPO 1717/1719 20005KT 6000 -DZRA BKN015 TEMPO 1719/1802 VRB03KT 2000 MIFG BKN005 ETHC 171620Z 16002KT 9999 FEW025 BKN060 BKN080 15/13 Q1011 BLU

TAF AMD ETHC 171459Z 1714/1723 18006KT 9999 NSW SCT010 BKN020 TEMPO 1714/1716 22008KT 4000 -DZRA BKN008 BECMG 1715/1717 16005KT 8000 -RA SCT010 BKN025 TEMPO 1717/1723 14003KT 4000 RA BKN010 CANCEL 1520 EDVK 171620Z 17009KT 9999 FEW025 BKN035 15/11 Q1012

TAF EDVK 171400Z 1715/1724 18008KT 9999 BKN020 TEMPO 1716/1724 4000 RA BKN012
TAF
TAF EDVE 171400Z 1715/1721 22008KT 9999 BKN030 TEMPO 1717/1720 16005KT

TAF EDDV 171100Z 1712/1812 23010KT 9999 BKN025 BECMG 1715/1718 17007KT TEMPO 1720/1808 RA BKN012

TAF ETHS 171619Z 1717/1802 20007KT 9999 NSW SCT015 BKN050 TEMPO 1717/1719 20005KT 6000 -DZRA BKN015 TEMPO 1719/1802 VRB03KT 2000 MIFG BKN005

TAF AMD ETHC 171459Z 1714/1723 18006KT 9999 NSW SCT010 BKN020 TEMPO 1714/1716 22008KT 4000 -DZRA BKN008 BECMG 1715/1717 16005KT 8000 -RA SCT010 BKN025 TEMPO 1717/1723 14003KT 4000 RA BKN010 CANCEL 1520

TAF EDVK 171400Z 1715/1724 18008KT 9999 BKN020 TEMPO 1716/1724 4000 RA BKN012

SR / SS: 05:45 / 16:20 UTC (EDVE 2019-10-17)
Uwe hat die PPL-Prüfung bestanden! Herzlichen Glückwunsch und Always Happy Landings!! +++ Hallo und herzlich Willkommen Lothar! Wir wünschen viel Spaß und Erfolg für die Ausbildung! +++ Und schon wieder hat sich ein Schüler freigeflogen, herzlichen Glückwunsch Sebastian zum ersten Solo! +++ Auch Mathias hat sein erstes Solo hinter sich gebracht. Herzlichen Glückwunsch und weiterhin Happy Landings! +++ Ilya hat seinen ersten Soloflug absolviert! Glückwunsch und weiter so! +++ Herzlich Willkommen bei der FFG, Carsten! +++ Hallo Peter, willkommen im Verein und viel Spaß bei der Ausbildung! +++ Falk hat sich freigeflogen! Gratulation und weiterhin Happy Landings! +++ Herzlich Willkommen im Verein Christoph und viel Erfolg für deine weitere Ausbildung! +++ Und wieder ein neuer Pilot. Wir beglückwünschen Max zur erfolgreichen PPL-Prüfung und wünschen Always Happy Landings!

Neues Bild in 60 Sekunden

Letztes NOTAM EDVE
von 28.10.2019 0900Z bis 29.10.2019 1100Z
DVOR/DME BKD/BRUENKENDORF 117.7 MHZ CH124X ON MAINT. DO NOT USE, FALSE INDICATIONS POSS.

Letztes NOTAM EDCB
von 16.09.2019 1200Z bis 26.10.2019 2359Z
AD HOURS OF SERVICE ARE NOW: 0700-1600, OTHER TIMES PPR.

Letztes NOTAM EDBC
von 16.10.2019 1132Z bis 14.01.2020 2359Z
MET SERVICES (AD WARNINGS, METAR, TAF) NOT AVBL.

Letztes NOTAM EDVM
von 01.11.2019 0615Z bis 15.11.2019 1559Z
DAILY SR-SS PLUS30
DROPPING ZONE HILDESHEIM ADDITIONAL ACTIVE, 2NM RADIUS CENTERED ON PSN 521047N 0095644E
GND- FL100

Letztes NOTAM EDDV
von 25.10.2019 0600Z bis 25.10.2019 1200Z
ILS RWY 27R LO (320 HA) ON MAINT. DO NOT USE, FALSE INDICATIONS POSSIBLE.

Letztes NOTAM EDVK
von 22.10.2019 0800Z bis 23.10.2019 1100Z
DUE TO MAINT OF WRB DVOR/DME THE FLW CHANGES TO MISSED APCH PROC OCCUR: RWY 27: ILS/LOC: CLIMB STRAIGHT AHEAD TO 5000 AND CONTACT BREM [more]

Letztes NOTAM EDVS
von 17.10.2019 1415Z bis PERM
4 WIND POWER STATIONS ERECTED AT SALZGITTER, 1000M SOUTH OF DOWNWIND SALZGITTER AIRFIELD. 520831N 0102521E. ELEV 1006FT/679FT AGL. DAY AND NIGHT [more]

          aerodata150     Radio38